sensor_id;sensor_type;location;lat;lon;timestamp;temperature;humidity
13186;DHT22;6658;53.080;7.428;2023-02-28T00:01:23;4.10;99.90
13186;DHT22;6658;53.080;7.428;2023-02-28T00:03:48;4.10;99.90
13186;DHT22;6658;53.080;7.428;2023-02-28T00:06:14;4.10;99.90
13186;DHT22;6658;53.080;7.428;2023-02-28T00:08:40;4.10;99.90
13186;DHT22;6658;53.080;7.428;2023-02-28T00:11:11;4.10;99.90
13186;DHT22;6658;53.080;7.428;2023-02-28T00:13:40;4.10;99.90
13186;DHT22;6658;53.080;7.428;2023-02-28T00:16:08;4.10;99.90
13186;DHT22;6658;53.080;7.428;2023-02-28T00:18:35;4.10;99.90
13186;DHT22;6658;53.080;7.428;2023-02-28T00:21:01;4.10;99.90
13186;DHT22;6658;53.080;7.428;2023-02-28T00:23:27;4.10;99.90
13186;DHT22;6658;53.080;7.428;2023-02-28T00:25:53;4.10;99.90
13186;DHT22;6658;53.080;7.428;2023-02-28T00:28:19;4.10;99.90
13186;DHT22;6658;53.080;7.428;2023-02-28T00:30:45;4.20;99.90
13186;DHT22;6658;53.080;7.428;2023-02-28T00:33:11;4.10;99.90
13186;DHT22;6658;53.080;7.428;2023-02-28T00:35:38;4.10;99.90
13186;DHT22;6658;53.080;7.428;2023-02-28T00:38:04;4.10;99.90
13186;DHT22;6658;53.080;7.428;2023-02-28T00:40:29;4.10;99.90
13186;DHT22;6658;53.080;7.428;2023-02-28T00:42:55;4.10;99.90
13186;DHT22;6658;53.080;7.428;2023-02-28T00:45:21;4.10;99.90
13186;DHT22;6658;53.080;7.428;2023-02-28T00:47:47;4.10;99.90
13186;DHT22;6658;53.080;7.428;2023-02-28T00:50:16;4.10;99.90
13186;DHT22;6658;53.080;7.428;2023-02-28T00:52:42;4.10;99.90
13186;DHT22;6658;53.080;7.428;2023-02-28T00:55:08;4.10;99.90
13186;DHT22;6658;53.080;7.428;2023-02-28T00:57:34;4.10;99.90
13186;DHT22;6658;53.080;7.428;2023-02-28T00:59:59;4.10;99.90
13186;DHT22;6658;53.080;7.428;2023-02-28T01:02:25;4.10;99.90
13186;DHT22;6658;53.080;7.428;2023-02-28T01:04:50;4.10;99.90
13186;DHT22;6658;53.080;7.428;2023-02-28T01:07:16;4.10;99.90
13186;DHT22;6658;53.080;7.428;2023-02-28T01:09:42;4.10;99.90
13186;DHT22;6658;53.080;7.428;2023-02-28T01:12:08;4.10;99.90
13186;DHT22;6658;53.080;7.428;2023-02-28T01:14:35;4.10;99.90
13186;DHT22;6658;53.080;7.428;2023-02-28T01:17:01;4.00;99.90
13186;DHT22;6658;53.080;7.428;2023-02-28T01:19:27;4.00;99.90
13186;DHT22;6658;53.080;7.428;2023-02-28T01:21:53;4.00;99.90
13186;DHT22;6658;53.080;7.428;2023-02-28T01:24:18;4.00;99.90
13186;DHT22;6658;53.080;7.428;2023-02-28T01:26:44;4.00;99.90
13186;DHT22;6658;53.080;7.428;2023-02-28T01:29:10;4.00;99.90
13186;DHT22;6658;53.080;7.428;2023-02-28T01:31:36;4.00;99.90
13186;DHT22;6658;53.080;7.428;2023-02-28T01:34:02;3.90;99.90
13186;DHT22;6658;53.080;7.428;2023-02-28T01:36:28;3.90;99.90
13186;DHT22;6658;53.080;7.428;2023-02-28T01:38:54;3.90;99.90
13186;DHT22;6658;53.080;7.428;2023-02-28T01:41:22;3.90;99.90
13186;DHT22;6658;53.080;7.428;2023-02-28T01:46:14;3.90;99.90
13186;DHT22;6658;53.080;7.428;2023-02-28T01:48:47;3.90;99.90
13186;DHT22;6658;53.080;7.428;2023-02-28T01:51:18;3.90;99.90
13186;DHT22;6658;53.080;7.428;2023-02-28T01:53:49;3.90;99.90
13186;DHT22;6658;53.080;7.428;2023-02-28T01:56:20;3.90;99.90
13186;DHT22;6658;53.080;7.428;2023-02-28T01:58:50;3.90;99.90
13186;DHT22;6658;53.080;7.428;2023-02-28T02:01:17;3.90;99.90
13186;DHT22;6658;53.080;7.428;2023-02-28T02:03:52;3.90;99.90
13186;DHT22;6658;53.080;7.428;2023-02-28T02:06:45;3.80;99.90
13186;DHT22;6658;53.080;7.428;2023-02-28T02:09:12;3.80;99.90
13186;DHT22;6658;53.080;7.428;2023-02-28T02:11:40;3.80;99.90
13186;DHT22;6658;53.080;7.428;2023-02-28T02:14:30;3.80;99.90
13186;DHT22;6658;53.080;7.428;2023-02-28T02:17:35;3.80;99.90
13186;DHT22;6658;53.080;7.428;2023-02-28T02:37:20;3.80;99.90
13186;DHT22;6658;53.080;7.428;2023-02-28T02:42:56;3.80;99.90
13186;DHT22;6658;53.080;7.428;2023-02-28T02:48:04;3.70;99.90
13186;DHT22;6658;53.080;7.428;2023-02-28T02:50:41;3.70;99.90
13186;DHT22;6658;53.080;7.428;2023-02-28T02:53:09;3.70;99.90
13186;DHT22;6658;53.080;7.428;2023-02-28T02:55:40;3.70;99.90
13186;DHT22;6658;53.080;7.428;2023-02-28T02:58:10;3.70;99.90
13186;DHT22;6658;53.080;7.428;2023-02-28T03:00:46;3.70;99.90
13186;DHT22;6658;53.080;7.428;2023-02-28T03:03:14;3.70;99.90
13186;DHT22;6658;53.080;7.428;2023-02-28T03:05:50;3.70;99.90
13186;DHT22;6658;53.080;7.428;2023-02-28T03:08:17;3.70;99.90
13186;DHT22;6658;53.080;7.428;2023-02-28T03:10:44;3.70;99.90
13186;DHT22;6658;53.080;7.428;2023-02-28T03:13:37;3.70;99.90
13186;DHT22;6658;53.080;7.428;2023-02-28T03:21:36;3.70;99.90
13186;DHT22;6658;53.080;7.428;2023-02-28T03:24:24;3.80;99.90
13186;DHT22;6658;53.080;7.428;2023-02-28T03:27:07;3.70;99.90
13186;DHT22;6658;53.080;7.428;2023-02-28T03:29:46;3.70;99.90
13186;DHT22;6658;53.080;7.428;2023-02-28T03:34:50;3.70;99.90
13186;DHT22;6658;53.080;7.428;2023-02-28T03:37:22;3.70;99.90
13186;DHT22;6658;53.080;7.428;2023-02-28T03:39:55;3.70;99.90
13186;DHT22;6658;53.080;7.428;2023-02-28T03:42:25;3.70;99.90
13186;DHT22;6658;53.080;7.428;2023-02-28T03:44:59;3.80;99.90
13186;DHT22;6658;53.080;7.428;2023-02-28T03:47:41;3.80;99.90
13186;DHT22;6658;53.080;7.428;2023-02-28T03:50:22;3.80;99.90
13186;DHT22;6658;53.080;7.428;2023-02-28T03:53:25;3.80;99.90
13186;DHT22;6658;53.080;7.428;2023-02-28T03:55:48;3.80;99.90
13186;DHT22;6658;53.080;7.428;2023-02-28T04:01:12;3.80;99.90
13186;DHT22;6658;53.080;7.428;2023-02-28T04:03:39;3.80;99.90
13186;DHT22;6658;53.080;7.428;2023-02-28T04:06:08;3.80;99.90
13186;DHT22;6658;53.080;7.428;2023-02-28T04:08:38;3.80;99.90
13186;DHT22;6658;53.080;7.428;2023-02-28T04:11:27;3.80;99.90
13186;DHT22;6658;53.080;7.428;2023-02-28T04:13:54;3.80;99.90
13186;DHT22;6658;53.080;7.428;2023-02-28T04:16:20;3.80;99.90
13186;DHT22;6658;53.080;7.428;2023-02-28T04:18:45;3.80;99.90
13186;DHT22;6658;53.080;7.428;2023-02-28T04:21:12;3.80;99.90
13186;DHT22;6658;53.080;7.428;2023-02-28T04:23:37;3.80;99.90
13186;DHT22;6658;53.080;7.428;2023-02-28T04:26:04;3.80;99.90
13186;DHT22;6658;53.080;7.428;2023-02-28T04:28:31;3.80;99.90
13186;DHT22;6658;53.080;7.428;2023-02-28T04:30:59;3.80;99.90
13186;DHT22;6658;53.080;7.428;2023-02-28T04:33:25;3.80;99.90
13186;DHT22;6658;53.080;7.428;2023-02-28T04:36:08;3.80;99.90
13186;DHT22;6658;53.080;7.428;2023-02-28T04:38:36;3.80;99.90
13186;DHT22;6658;53.080;7.428;2023-02-28T04:41:02;3.80;99.90
13186;DHT22;6658;53.080;7.428;2023-02-28T04:43:28;3.80;99.90
13186;DHT22;6658;53.080;7.428;2023-02-28T04:45:55;3.70;99.90
13186;DHT22;6658;53.080;7.428;2023-02-28T04:48:26;3.70;99.90
13186;DHT22;6658;53.080;7.428;2023-02-28T04:50:53;3.70;99.90
13186;DHT22;6658;53.080;7.428;2023-02-28T04:53:19;3.70;99.90
13186;DHT22;6658;53.080;7.428;2023-02-28T04:55:45;3.70;99.90
13186;DHT22;6658;53.080;7.428;2023-02-28T04:58:12;3.70;99.90
13186;DHT22;6658;53.080;7.428;2023-02-28T05:00:37;3.70;99.90
13186;DHT22;6658;53.080;7.428;2023-02-28T05:03:03;3.70;99.90
13186;DHT22;6658;53.080;7.428;2023-02-28T05:05:29;3.70;99.90
13186;DHT22;6658;53.080;7.428;2023-02-28T05:07:55;3.70;99.90
13186;DHT22;6658;53.080;7.428;2023-02-28T05:10:24;3.70;99.90
13186;DHT22;6658;53.080;7.428;2023-02-28T05:12:50;3.70;99.90
13186;DHT22;6658;53.080;7.428;2023-02-28T05:15:18;3.70;99.90
13186;DHT22;6658;53.080;7.428;2023-02-28T05:17:43;3.70;99.90
13186;DHT22;6658;53.080;7.428;2023-02-28T05:20:10;3.70;99.90
13186;DHT22;6658;53.080;7.428;2023-02-28T05:22:39;3.70;99.90
13186;DHT22;6658;53.080;7.428;2023-02-28T05:25:05;3.70;99.90
13186;DHT22;6658;53.080;7.428;2023-02-28T05:27:32;3.70;99.90
13186;DHT22;6658;53.080;7.428;2023-02-28T05:29:58;3.70;99.90
13186;DHT22;6658;53.080;7.428;2023-02-28T05:32:24;3.70;99.90
13186;DHT22;6658;53.080;7.428;2023-02-28T05:34:50;3.70;99.90
13186;DHT22;6658;53.080;7.428;2023-02-28T05:37:16;3.70;99.90
13186;DHT22;6658;53.080;7.428;2023-02-28T05:39:42;3.70;99.90
13186;DHT22;6658;53.080;7.428;2023-02-28T05:42:08;3.70;99.90
13186;DHT22;6658;53.080;7.428;2023-02-28T05:44:35;3.70;99.90
13186;DHT22;6658;53.080;7.428;2023-02-28T05:47:00;3.60;99.90
13186;DHT22;6658;53.080;7.428;2023-02-28T05:49:26;3.60;99.90
13186;DHT22;6658;53.080;7.428;2023-02-28T05:51:52;3.60;99.90
13186;DHT22;6658;53.080;7.428;2023-02-28T05:54:18;3.60;99.90
13186;DHT22;6658;53.080;7.428;2023-02-28T05:56:43;3.60;99.90
13186;DHT22;6658;53.080;7.428;2023-02-28T05:59:11;3.60;99.90
13186;DHT22;6658;53.080;7.428;2023-02-28T06:01:42;3.60;99.90
13186;DHT22;6658;53.080;7.428;2023-02-28T06:04:15;3.60;99.90
13186;DHT22;6658;53.080;7.428;2023-02-28T06:06:47;3.60;99.90
13186;DHT22;6658;53.080;7.428;2023-02-28T06:09:13;3.60;99.90
13186;DHT22;6658;53.080;7.428;2023-02-28T06:11:39;3.60;99.90
13186;DHT22;6658;53.080;7.428;2023-02-28T06:14:05;3.60;99.90
13186;DHT22;6658;53.080;7.428;2023-02-28T06:16:34;3.60;99.90
13186;DHT22;6658;53.080;7.428;2023-02-28T06:19:01;3.60;99.90
13186;DHT22;6658;53.080;7.428;2023-02-28T06:21:28;3.60;99.90
13186;DHT22;6658;53.080;7.428;2023-02-28T06:23:53;3.60;99.90
13186;DHT22;6658;53.080;7.428;2023-02-28T06:26:19;3.60;99.90
13186;DHT22;6658;53.080;7.428;2023-02-28T06:28:46;3.60;99.90
13186;DHT22;6658;53.080;7.428;2023-02-28T06:31:14;3.60;99.90
13186;DHT22;6658;53.080;7.428;2023-02-28T06:33:41;3.60;99.90
13186;DHT22;6658;53.080;7.428;2023-02-28T06:36:07;3.60;99.90
13186;DHT22;6658;53.080;7.428;2023-02-28T06:38:34;3.60;99.90
13186;DHT22;6658;53.080;7.428;2023-02-28T06:41:00;3.50;99.90
13186;DHT22;6658;53.080;7.428;2023-02-28T06:43:29;3.50;99.90
13186;DHT22;6658;53.080;7.428;2023-02-28T06:45:57;3.50;99.90
13186;DHT22;6658;53.080;7.428;2023-02-28T06:48:23;3.50;99.90
13186;DHT22;6658;53.080;7.428;2023-02-28T06:50:49;3.50;99.90
13186;DHT22;6658;53.080;7.428;2023-02-28T06:53:15;3.50;99.90
13186;DHT22;6658;53.080;7.428;2023-02-28T06:55:41;3.40;99.90
13186;DHT22;6658;53.080;7.428;2023-02-28T06:58:07;3.40;99.90
13186;DHT22;6658;53.080;7.428;2023-02-28T07:00:44;3.40;99.90
13186;DHT22;6658;53.080;7.428;2023-02-28T07:03:11;3.40;99.90
13186;DHT22;6658;53.080;7.428;2023-02-28T07:05:38;3.30;99.90
13186;DHT22;6658;53.080;7.428;2023-02-28T07:08:04;3.30;99.90
13186;DHT22;6658;53.080;7.428;2023-02-28T07:10:34;3.30;99.90
13186;DHT22;6658;53.080;7.428;2023-02-28T07:13:00;3.30;99.90
13186;DHT22;6658;53.080;7.428;2023-02-28T07:15:26;3.30;99.90
13186;DHT22;6658;53.080;7.428;2023-02-28T07:17:52;3.30;99.90
13186;DHT22;6658;53.080;7.428;2023-02-28T07:20:17;3.30;99.90
13186;DHT22;6658;53.080;7.428;2023-02-28T07:22:43;3.40;99.90
13186;DHT22;6658;53.080;7.428;2023-02-28T07:25:10;3.50;99.90
13186;DHT22;6658;53.080;7.428;2023-02-28T07:27:35;3.50;99.90
13186;DHT22;6658;53.080;7.428;2023-02-28T07:30:01;3.60;99.90
13186;DHT22;6658;53.080;7.428;2023-02-28T07:32:29;3.70;99.90
13186;DHT22;6658;53.080;7.428;2023-02-28T07:34:54;3.80;99.90
13186;DHT22;6658;53.080;7.428;2023-02-28T07:37:20;3.90;99.90
13186;DHT22;6658;53.080;7.428;2023-02-28T07:39:46;3.90;99.90
13186;DHT22;6658;53.080;7.428;2023-02-28T07:42:12;4.00;99.90
13186;DHT22;6658;53.080;7.428;2023-02-28T07:44:41;4.10;99.90
13186;DHT22;6658;53.080;7.428;2023-02-28T07:47:09;4.20;99.90
13186;DHT22;6658;53.080;7.428;2023-02-28T07:49:36;4.20;99.90
13186;DHT22;6658;53.080;7.428;2023-02-28T07:52:05;4.30;99.90
13186;DHT22;6658;53.080;7.428;2023-02-28T07:54:32;4.30;99.90
13186;DHT22;6658;53.080;7.428;2023-02-28T07:56:58;4.40;99.90
13186;DHT22;6658;53.080;7.428;2023-02-28T07:59:23;4.40;99.90
13186;DHT22;6658;53.080;7.428;2023-02-28T08:01:49;4.50;99.90
13186;DHT22;6658;53.080;7.428;2023-02-28T08:04:17;4.60;99.90
13186;DHT22;6658;53.080;7.428;2023-02-28T08:06:42;4.70;99.90
13186;DHT22;6658;53.080;7.428;2023-02-28T08:09:09;4.80;99.90
13186;DHT22;6658;53.080;7.428;2023-02-28T08:11:34;4.90;99.90
13186;DHT22;6658;53.080;7.428;2023-02-28T08:14:00;4.90;99.90
13186;DHT22;6658;53.080;7.428;2023-02-28T08:16:26;5.00;99.90
13186;DHT22;6658;53.080;7.428;2023-02-28T08:18:52;5.20;99.90
13186;DHT22;6658;53.080;7.428;2023-02-28T08:21:19;5.30;99.90
13186;DHT22;6658;53.080;7.428;2023-02-28T08:23:47;5.60;99.90
13186;DHT22;6658;53.080;7.428;2023-02-28T08:26:14;5.70;99.90
13186;DHT22;6658;53.080;7.428;2023-02-28T08:28:40;5.80;99.90
13186;DHT22;6658;53.080;7.428;2023-02-28T08:31:13;5.80;99.90
13186;DHT22;6658;53.080;7.428;2023-02-28T08:33:40;5.90;99.90
13186;DHT22;6658;53.080;7.428;2023-02-28T08:36:08;5.90;99.90
13186;DHT22;6658;53.080;7.428;2023-02-28T08:38:34;6.00;99.90
13186;DHT22;6658;53.080;7.428;2023-02-28T08:41:05;6.10;99.90
13186;DHT22;6658;53.080;7.428;2023-02-28T08:43:33;6.20;99.90
13186;DHT22;6658;53.080;7.428;2023-02-28T08:45:59;6.20;99.90
13186;DHT22;6658;53.080;7.428;2023-02-28T08:48:26;6.40;99.90
13186;DHT22;6658;53.080;7.428;2023-02-28T08:50:59;6.70;99.90
13186;DHT22;6658;53.080;7.428;2023-02-28T08:53:25;6.60;99.90
13186;DHT22;6658;53.080;7.428;2023-02-28T08:56:04;6.60;99.90
13186;DHT22;6658;53.080;7.428;2023-02-28T08:58:30;6.40;99.90
13186;DHT22;6658;53.080;7.428;2023-02-28T09:00:56;6.30;99.90
13186;DHT22;6658;53.080;7.428;2023-02-28T09:03:23;6.30;99.90
13186;DHT22;6658;53.080;7.428;2023-02-28T09:05:57;6.20;99.90
13186;DHT22;6658;53.080;7.428;2023-02-28T09:08:24;6.00;99.90
13186;DHT22;6658;53.080;7.428;2023-02-28T09:10:50;5.90;99.90
13186;DHT22;6658;53.080;7.428;2023-02-28T09:13:17;5.80;99.90
13186;DHT22;6658;53.080;7.428;2023-02-28T09:15:44;5.70;99.90
13186;DHT22;6658;53.080;7.428;2023-02-28T09:18:09;5.80;99.90
13186;DHT22;6658;53.080;7.428;2023-02-28T09:20:38;5.80;99.90
13186;DHT22;6658;53.080;7.428;2023-02-28T09:23:05;5.90;99.90
13186;DHT22;6658;53.080;7.428;2023-02-28T09:25:31;6.00;99.90
13186;DHT22;6658;53.080;7.428;2023-02-28T09:27:57;6.10;99.90
13186;DHT22;6658;53.080;7.428;2023-02-28T09:30:22;6.30;99.90
13186;DHT22;6658;53.080;7.428;2023-02-28T09:32:48;6.50;99.90
13186;DHT22;6658;53.080;7.428;2023-02-28T09:35:24;6.80;99.90
13186;DHT22;6658;53.080;7.428;2023-02-28T09:37:51;7.10;99.90
13186;DHT22;6658;53.080;7.428;2023-02-28T09:40:24;7.40;99.90
13186;DHT22;6658;53.080;7.428;2023-02-28T09:42:52;7.40;99.90
13186;DHT22;6658;53.080;7.428;2023-02-28T09:48:31;7.10;99.90
13186;DHT22;6658;53.080;7.428;2023-02-28T09:50:52;7.10;99.90
13186;DHT22;6658;53.080;7.428;2023-02-28T09:53:28;7.30;99.90
13186;DHT22;6658;53.080;7.428;2023-02-28T09:56:39;7.20;99.90
13186;DHT22;6658;53.080;7.428;2023-02-28T10:04:50;7.20;99.90
13186;DHT22;6658;53.080;7.428;2023-02-28T10:07:32;7.40;99.90
13186;DHT22;6658;53.080;7.428;2023-02-28T10:10:06;7.40;99.90
13186;DHT22;6658;53.080;7.428;2023-02-28T10:12:38;7.50;99.90
13186;DHT22;6658;53.080;7.428;2023-02-28T10:15:14;7.60;99.90
13186;DHT22;6658;53.080;7.428;2023-02-28T10:17:43;7.60;99.90
13186;DHT22;6658;53.080;7.428;2023-02-28T10:20:14;7.50;99.90
13186;DHT22;6658;53.080;7.428;2023-02-28T10:25:35;7.50;99.90
13186;DHT22;6658;53.080;7.428;2023-02-28T10:28:11;7.50;99.90
13186;DHT22;6658;53.080;7.428;2023-02-28T10:30:57;7.60;99.90
13186;DHT22;6658;53.080;7.428;2023-02-28T10:33:28;7.70;99.90
13186;DHT22;6658;53.080;7.428;2023-02-28T10:35:54;7.60;99.90
13186;DHT22;6658;53.080;7.428;2023-02-28T10:38:23;7.40;99.90
13186;DHT22;6658;53.080;7.428;2023-02-28T10:40:49;7.40;99.90
13186;DHT22;6658;53.080;7.428;2023-02-28T10:45:57;7.40;99.90
13186;DHT22;6658;53.080;7.428;2023-02-28T10:48:30;7.50;99.90
13186;DHT22;6658;53.080;7.428;2023-02-28T10:50:58;7.60;99.90
13186;DHT22;6658;53.080;7.428;2023-02-28T10:58:51;7.80;99.90
13186;DHT22;6658;53.080;7.428;2023-02-28T11:03:56;7.70;99.90
13186;DHT22;6658;53.080;7.428;2023-02-28T11:06:30;7.50;99.90
13186;DHT22;6658;53.080;7.428;2023-02-28T11:08:59;7.40;99.90
13186;DHT22;6658;53.080;7.428;2023-02-28T11:11:27;7.20;99.90
13186;DHT22;6658;53.080;7.428;2023-02-28T11:13:55;7.10;99.90
13186;DHT22;6658;53.080;7.428;2023-02-28T11:16:31;7.00;99.90
13186;DHT22;6658;53.080;7.428;2023-02-28T11:18:58;7.10;99.90
13186;DHT22;6658;53.080;7.428;2023-02-28T11:21:27;7.00;99.90
13186;DHT22;6658;53.080;7.428;2023-02-28T11:24:04;7.10;99.90
13186;DHT22;6658;53.080;7.428;2023-02-28T11:26:45;7.10;99.90
13186;DHT22;6658;53.080;7.428;2023-02-28T11:29:28;7.00;99.90
13186;DHT22;6658;53.080;7.428;2023-02-28T11:32:16;6.90;99.90
13186;DHT22;6658;53.080;7.428;2023-02-28T11:34:43;6.90;99.90
13186;DHT22;6658;53.080;7.428;2023-02-28T11:37:16;6.80;99.90
13186;DHT22;6658;53.080;7.428;2023-02-28T11:39:43;6.90;99.90
13186;DHT22;6658;53.080;7.428;2023-02-28T11:50:45;6.90;99.90
13186;DHT22;6658;53.080;7.428;2023-02-28T11:56:21;7.00;99.90
13186;DHT22;6658;53.080;7.428;2023-02-28T12:04:26;6.90;99.90
13186;DHT22;6658;53.080;7.428;2023-02-28T12:07:16;6.90;99.90
13186;DHT22;6658;53.080;7.428;2023-02-28T12:10:12;6.90;99.90
13186;DHT22;6658;53.080;7.428;2023-02-28T12:12:57;6.90;99.90
13186;DHT22;6658;53.080;7.428;2023-02-28T12:15:48;7.00;99.90
13186;DHT22;6658;53.080;7.428;2023-02-28T12:26:36;7.10;99.90
13186;DHT22;6658;53.080;7.428;2023-02-28T12:32:04;7.20;99.90
13186;DHT22;6658;53.080;7.428;2023-02-28T12:34:36;7.20;99.90
13186;DHT22;6658;53.080;7.428;2023-02-28T12:37:10;7.20;99.90
13186;DHT22;6658;53.080;7.428;2023-02-28T12:39:44;7.20;99.90
13186;DHT22;6658;53.080;7.428;2023-02-28T12:42:24;7.20;99.90
13186;DHT22;6658;53.080;7.428;2023-02-28T12:45:08;7.20;99.90
13186;DHT22;6658;53.080;7.428;2023-02-28T12:47:36;7.20;99.90
13186;DHT22;6658;53.080;7.428;2023-02-28T12:50:08;7.20;99.90
13186;DHT22;6658;53.080;7.428;2023-02-28T12:55:46;7.20;99.90
13186;DHT22;6658;53.080;7.428;2023-02-28T12:58:26;7.30;99.90
13186;DHT22;6658;53.080;7.428;2023-02-28T13:04:26;7.40;99.90
13186;DHT22;6658;53.080;7.428;2023-02-28T13:09:34;7.40;99.90
13186;DHT22;6658;53.080;7.428;2023-02-28T13:11:59;7.30;99.90
13186;DHT22;6658;53.080;7.428;2023-02-28T13:14:30;7.20;99.90
13186;DHT22;6658;53.080;7.428;2023-02-28T13:19:37;7.10;99.90
13186;DHT22;6658;53.080;7.428;2023-02-28T13:22:04;7.20;99.90
13186;DHT22;6658;53.080;7.428;2023-02-28T13:29:42;7.40;99.90
13186;DHT22;6658;53.080;7.428;2023-02-28T13:58:22;7.30;99.90
13186;DHT22;6658;53.080;7.428;2023-02-28T14:13:59;7.30;99.90
13186;DHT22;6658;53.080;7.428;2023-02-28T14:16:27;7.30;99.90
13186;DHT22;6658;53.080;7.428;2023-02-28T14:21:43;7.20;99.90
13186;DHT22;6658;53.080;7.428;2023-02-28T14:24:38;7.30;99.90
13186;DHT22;6658;53.080;7.428;2023-02-28T14:30:11;7.30;99.90
13186;DHT22;6658;53.080;7.428;2023-02-28T14:32:45;7.30;99.90
13186;DHT22;6658;53.080;7.428;2023-02-28T14:37:51;7.40;99.90
13186;DHT22;6658;53.080;7.428;2023-02-28T14:43:03;7.30;99.90
13186;DHT22;6658;53.080;7.428;2023-02-28T14:45:33;7.30;99.90
13186;DHT22;6658;53.080;7.428;2023-02-28T14:48:02;7.20;99.90
13186;DHT22;6658;53.080;7.428;2023-02-28T14:50:32;7.20;99.90
13186;DHT22;6658;53.080;7.428;2023-02-28T14:52:59;7.20;99.90
13186;DHT22;6658;53.080;7.428;2023-02-28T14:55:31;7.20;99.90
13186;DHT22;6658;53.080;7.428;2023-02-28T14:58:01;7.20;99.90
13186;DHT22;6658;53.080;7.428;2023-02-28T15:00:47;7.20;99.90
13186;DHT22;6658;53.080;7.428;2023-02-28T15:03:29;7.20;99.90
13186;DHT22;6658;53.080;7.428;2023-02-28T15:06:01;7.30;99.90
13186;DHT22;6658;53.080;7.428;2023-02-28T15:08:28;7.30;99.90
13186;DHT22;6658;53.080;7.428;2023-02-28T15:10:59;7.30;99.90
13186;DHT22;6658;53.080;7.428;2023-02-28T15:13:38;7.30;99.90
13186;DHT22;6658;53.080;7.428;2023-02-28T15:16:16;7.30;99.90
13186;DHT22;6658;53.080;7.428;2023-02-28T15:18:52;7.20;99.90
13186;DHT22;6658;53.080;7.428;2023-02-28T15:21:36;7.30;99.90
13186;DHT22;6658;53.080;7.428;2023-02-28T15:24:22;7.20;99.90
13186;DHT22;6658;53.080;7.428;2023-02-28T15:27:04;7.20;99.90
13186;DHT22;6658;53.080;7.428;2023-02-28T15:29:37;7.20;99.90
13186;DHT22;6658;53.080;7.428;2023-02-28T15:32:07;7.20;99.90
13186;DHT22;6658;53.080;7.428;2023-02-28T15:34:44;7.20;99.90
13186;DHT22;6658;53.080;7.428;2023-02-28T15:37:40;7.20;99.90
13186;DHT22;6658;53.080;7.428;2023-02-28T15:40:22;7.10;99.90
13186;DHT22;6658;53.080;7.428;2023-02-28T15:43:34;7.10;99.90
13186;DHT22;6658;53.080;7.428;2023-02-28T15:46:10;7.10;99.90
13186;DHT22;6658;53.080;7.428;2023-02-28T15:48:37;7.10;99.90
13186;DHT22;6658;53.080;7.428;2023-02-28T15:51:12;7.10;99.90
13186;DHT22;6658;53.080;7.428;2023-02-28T15:54:00;7.10;99.90
13186;DHT22;6658;53.080;7.428;2023-02-28T15:56:35;7.10;99.90
13186;DHT22;6658;53.080;7.428;2023-02-28T15:59:06;7.10;99.90
13186;DHT22;6658;53.080;7.428;2023-02-28T16:01:34;7.00;99.90
13186;DHT22;6658;53.080;7.428;2023-02-28T16:04:06;7.10;99.90
13186;DHT22;6658;53.080;7.428;2023-02-28T16:06:38;7.00;99.90
13186;DHT22;6658;53.080;7.428;2023-02-28T16:09:07;7.00;99.90
13186;DHT22;6658;53.080;7.428;2023-02-28T16:11:37;7.00;99.90
13186;DHT22;6658;53.080;7.428;2023-02-28T16:14:04;6.90;99.90
13186;DHT22;6658;53.080;7.428;2023-02-28T16:16:31;6.90;99.90
13186;DHT22;6658;53.080;7.428;2023-02-28T16:18:57;6.90;99.90
13186;DHT22;6658;53.080;7.428;2023-02-28T16:21:24;6.80;99.90
13186;DHT22;6658;53.080;7.428;2023-02-28T16:23:50;6.80;99.90
13186;DHT22;6658;53.080;7.428;2023-02-28T16:26:20;6.70;99.90
13186;DHT22;6658;53.080;7.428;2023-02-28T16:28:46;6.70;99.90
13186;DHT22;6658;53.080;7.428;2023-02-28T16:31:12;6.70;99.90
13186;DHT22;6658;53.080;7.428;2023-02-28T16:33:43;6.70;99.90
13186;DHT22;6658;53.080;7.428;2023-02-28T16:36:20;6.60;99.90
13186;DHT22;6658;53.080;7.428;2023-02-28T16:38:46;6.50;99.90
13186;DHT22;6658;53.080;7.428;2023-02-28T16:41:16;6.50;99.90
13186;DHT22;6658;53.080;7.428;2023-02-28T16:43:45;6.40;99.90
13186;DHT22;6658;53.080;7.428;2023-02-28T16:46:12;6.30;99.90
13186;DHT22;6658;53.080;7.428;2023-02-28T16:48:39;6.30;99.90
13186;DHT22;6658;53.080;7.428;2023-02-28T16:51:12;6.20;99.90
13186;DHT22;6658;53.080;7.428;2023-02-28T16:53:38;6.10;99.90
13186;DHT22;6658;53.080;7.428;2023-02-28T16:56:04;6.00;99.90
13186;DHT22;6658;53.080;7.428;2023-02-28T16:58:32;5.90;99.90
13186;DHT22;6658;53.080;7.428;2023-02-28T17:01:01;5.80;99.90
13186;DHT22;6658;53.080;7.428;2023-02-28T17:03:29;5.70;99.90
13186;DHT22;6658;53.080;7.428;2023-02-28T17:05:55;5.50;99.90
13186;DHT22;6658;53.080;7.428;2023-02-28T17:08:21;5.40;99.90
13186;DHT22;6658;53.080;7.428;2023-02-28T17:10:46;5.30;99.90
13186;DHT22;6658;53.080;7.428;2023-02-28T17:13:12;5.10;99.90
13186;DHT22;6658;53.080;7.428;2023-02-28T17:15:38;5.10;99.90
13186;DHT22;6658;53.080;7.428;2023-02-28T17:18:04;5.00;99.90
13186;DHT22;6658;53.080;7.428;2023-02-28T17:20:30;4.90;99.90
13186;DHT22;6658;53.080;7.428;2023-02-28T17:22:57;4.70;99.90
13186;DHT22;6658;53.080;7.428;2023-02-28T17:25:23;4.60;99.90
13186;DHT22;6658;53.080;7.428;2023-02-28T17:27:49;4.50;99.90
13186;DHT22;6658;53.080;7.428;2023-02-28T17:30:20;4.40;99.90
13186;DHT22;6658;53.080;7.428;2023-02-28T17:32:46;4.30;99.90
13186;DHT22;6658;53.080;7.428;2023-02-28T17:35:12;4.20;99.90
13186;DHT22;6658;53.080;7.428;2023-02-28T17:37:38;4.00;99.90
13186;DHT22;6658;53.080;7.428;2023-02-28T17:40:05;3.90;99.90
13186;DHT22;6658;53.080;7.428;2023-02-28T17:42:31;3.80;99.90
13186;DHT22;6658;53.080;7.428;2023-02-28T17:44:56;3.70;99.90
13186;DHT22;6658;53.080;7.428;2023-02-28T17:47:22;3.60;99.90
13186;DHT22;6658;53.080;7.428;2023-02-28T17:49:48;3.50;99.90
13186;DHT22;6658;53.080;7.428;2023-02-28T17:52:13;3.30;99.90
13186;DHT22;6658;53.080;7.428;2023-02-28T17:54:39;3.20;99.90
13186;DHT22;6658;53.080;7.428;2023-02-28T17:57:05;3.20;99.90
13186;DHT22;6658;53.080;7.428;2023-02-28T17:59:31;3.10;99.90
13186;DHT22;6658;53.080;7.428;2023-02-28T18:02:02;3.10;99.90
13186;DHT22;6658;53.080;7.428;2023-02-28T18:04:29;3.00;99.90
13186;DHT22;6658;53.080;7.428;2023-02-28T18:06:54;2.90;99.90
13186;DHT22;6658;53.080;7.428;2023-02-28T18:09:25;2.80;99.90
13186;DHT22;6658;53.080;7.428;2023-02-28T18:11:53;2.70;99.90
13186;DHT22;6658;53.080;7.428;2023-02-28T18:14:21;2.70;99.90
13186;DHT22;6658;53.080;7.428;2023-02-28T18:16:48;2.60;99.90
13186;DHT22;6658;53.080;7.428;2023-02-28T18:19:14;2.50;99.90
13186;DHT22;6658;53.080;7.428;2023-02-28T18:21:42;2.50;99.90
13186;DHT22;6658;53.080;7.428;2023-02-28T18:24:08;2.50;99.90
13186;DHT22;6658;53.080;7.428;2023-02-28T18:26:35;2.40;99.90
13186;DHT22;6658;53.080;7.428;2023-02-28T18:29:01;2.30;99.90
13186;DHT22;6658;53.080;7.428;2023-02-28T18:31:26;2.20;99.90
13186;DHT22;6658;53.080;7.428;2023-02-28T18:33:52;2.00;99.90
13186;DHT22;6658;53.080;7.428;2023-02-28T18:36:19;2.00;99.90
13186;DHT22;6658;53.080;7.428;2023-02-28T18:38:49;2.00;99.90
13186;DHT22;6658;53.080;7.428;2023-02-28T18:41:16;2.00;99.90
13186;DHT22;6658;53.080;7.428;2023-02-28T18:43:42;1.90;99.90
13186;DHT22;6658;53.080;7.428;2023-02-28T18:46:14;1.90;99.90
13186;DHT22;6658;53.080;7.428;2023-02-28T18:48:40;1.80;99.90
13186;DHT22;6658;53.080;7.428;2023-02-28T18:51:07;1.80;99.90
13186;DHT22;6658;53.080;7.428;2023-02-28T18:53:36;1.80;99.90